sensor_id;sensor_type;location;lat;lon;timestamp;P1;durP1;ratioP1;P2;durP2;ratioP2
19551;SDS011;9921;47.186;9.778;2023-06-14T00:00:17;0.00;;;0.00;;
19551;SDS011;9921;47.186;9.778;2023-06-14T00:02:45;0.00;;;0.00;;
19551;SDS011;9921;47.186;9.778;2023-06-14T00:05:12;0.00;;;0.00;;
19551;SDS011;9921;47.186;9.778;2023-06-14T00:07:40;0.00;;;0.00;;
19551;SDS011;9921;47.186;9.778;2023-06-14T00:10:08;0.00;;;0.00;;
19551;SDS011;9921;47.186;9.778;2023-06-14T00:12:37;0.00;;;0.00;;
19551;SDS011;9921;47.186;9.778;2023-06-14T00:15:07;0.00;;;0.00;;
19551;SDS011;9921;47.186;9.778;2023-06-14T00:17:34;0.00;;;0.00;;
19551;SDS011;9921;47.186;9.778;2023-06-14T00:20:04;0.00;;;0.00;;
19551;SDS011;9921;47.186;9.778;2023-06-14T00:22:32;0.00;;;0.00;;
19551;SDS011;9921;47.186;9.778;2023-06-14T00:25:01;0.00;;;0.00;;
19551;SDS011;9921;47.186;9.778;2023-06-14T00:27:28;0.00;;;0.00;;
19551;SDS011;9921;47.186;9.778;2023-06-14T00:29:55;0.00;;;0.00;;
19551;SDS011;9921;47.186;9.778;2023-06-14T00:32:24;0.00;;;0.00;;
19551;SDS011;9921;47.186;9.778;2023-06-14T00:34:52;0.00;;;0.00;;
19551;SDS011;9921;47.186;9.778;2023-06-14T00:37:19;0.00;;;0.00;;
19551;SDS011;9921;47.186;9.778;2023-06-14T00:39:46;0.00;;;0.00;;
19551;SDS011;9921;47.186;9.778;2023-06-14T00:42:22;0.00;;;0.00;;
19551;SDS011;9921;47.186;9.778;2023-06-14T00:44:52;0.00;;;0.00;;
19551;SDS011;9921;47.186;9.778;2023-06-14T00:47:36;0.00;;;0.00;;
19551;SDS011;9921;47.186;9.778;2023-06-14T00:50:05;0.00;;;0.00;;
19551;SDS011;9921;47.186;9.778;2023-06-14T00:52:33;0.00;;;0.00;;
19551;SDS011;9921;47.186;9.778;2023-06-14T00:55:00;0.00;;;0.00;;
19551;SDS011;9921;47.186;9.778;2023-06-14T00:57:28;0.00;;;0.00;;
19551;SDS011;9921;47.186;9.778;2023-06-14T00:59:55;0.00;;;0.00;;
19551;SDS011;9921;47.186;9.778;2023-06-14T01:02:22;0.00;;;0.00;;
19551;SDS011;9921;47.186;9.778;2023-06-14T01:04:51;0.00;;;0.00;;
19551;SDS011;9921;47.186;9.778;2023-06-14T01:07:23;0.00;;;0.00;;
19551;SDS011;9921;47.186;9.778;2023-06-14T01:10:01;0.00;;;0.00;;
19551;SDS011;9921;47.186;9.778;2023-06-14T01:12:39;0.00;;;0.00;;
19551;SDS011;9921;47.186;9.778;2023-06-14T01:15:14;0.00;;;0.00;;
19551;SDS011;9921;47.186;9.778;2023-06-14T01:17:41;0.00;;;0.00;;
19551;SDS011;9921;47.186;9.778;2023-06-14T01:20:13;0.00;;;0.00;;
19551;SDS011;9921;47.186;9.778;2023-06-14T01:22:48;0.00;;;0.00;;
19551;SDS011;9921;47.186;9.778;2023-06-14T01:25:17;0.00;;;0.00;;
19551;SDS011;9921;47.186;9.778;2023-06-14T01:27:46;0.00;;;0.00;;
19551;SDS011;9921;47.186;9.778;2023-06-14T01:30:14;0.00;;;0.00;;
19551;SDS011;9921;47.186;9.778;2023-06-14T01:32:42;0.00;;;0.00;;
19551;SDS011;9921;47.186;9.778;2023-06-14T01:35:10;0.00;;;0.00;;
19551;SDS011;9921;47.186;9.778;2023-06-14T01:37:37;0.00;;;0.00;;
19551;SDS011;9921;47.186;9.778;2023-06-14T01:40:07;0.00;;;0.00;;
19551;SDS011;9921;47.186;9.778;2023-06-14T01:42:37;0.00;;;0.00;;
19551;SDS011;9921;47.186;9.778;2023-06-14T01:45:05;0.00;;;0.00;;
19551;SDS011;9921;47.186;9.778;2023-06-14T01:47:33;0.00;;;0.00;;
19551;SDS011;9921;47.186;9.778;2023-06-14T01:50:04;0.00;;;0.00;;
19551;SDS011;9921;47.186;9.778;2023-06-14T01:52:46;0.00;;;0.00;;
19551;SDS011;9921;47.186;9.778;2023-06-14T01:55:15;0.00;;;0.00;;
19551;SDS011;9921;47.186;9.778;2023-06-14T01:57:42;0.00;;;0.00;;
19551;SDS011;9921;47.186;9.778;2023-06-14T02:00:10;0.00;;;0.00;;
19551;SDS011;9921;47.186;9.778;2023-06-14T02:02:43;0.00;;;0.00;;
19551;SDS011;9921;47.186;9.778;2023-06-14T02:05:25;0.00;;;0.00;;
19551;SDS011;9921;47.186;9.778;2023-06-14T02:07:52;0.00;;;0.00;;
19551;SDS011;9921;47.186;9.778;2023-06-14T02:10:23;0.00;;;0.00;;
19551;SDS011;9921;47.186;9.778;2023-06-14T02:12:50;0.00;;;0.00;;
19551;SDS011;9921;47.186;9.778;2023-06-14T02:15:17;0.00;;;0.00;;
19551;SDS011;9921;47.186;9.778;2023-06-14T02:17:44;0.00;;;0.00;;
19551;SDS011;9921;47.186;9.778;2023-06-14T02:20:12;0.00;;;0.00;;
19551;SDS011;9921;47.186;9.778;2023-06-14T02:22:39;0.00;;;0.00;;
19551;SDS011;9921;47.186;9.778;2023-06-14T02:25:06;0.00;;;0.00;;
19551;SDS011;9921;47.186;9.778;2023-06-14T02:27:35;0.00;;;0.00;;
19551;SDS011;9921;47.186;9.778;2023-06-14T02:30:02;0.00;;;0.00;;
19551;SDS011;9921;47.186;9.778;2023-06-14T02:32:30;0.00;;;0.00;;
19551;SDS011;9921;47.186;9.778;2023-06-14T02:34:59;0.00;;;0.00;;
19551;SDS011;9921;47.186;9.778;2023-06-14T02:37:26;0.00;;;0.00;;
19551;SDS011;9921;47.186;9.778;2023-06-14T02:39:52;0.00;;;0.00;;
19551;SDS011;9921;47.186;9.778;2023-06-14T02:42:19;0.00;;;0.00;;
19551;SDS011;9921;47.186;9.778;2023-06-14T02:44:48;0.00;;;0.00;;
19551;SDS011;9921;47.186;9.778;2023-06-14T02:47:16;0.00;;;0.00;;
19551;SDS011;9921;47.186;9.778;2023-06-14T02:49:43;0.00;;;0.00;;
19551;SDS011;9921;47.186;9.778;2023-06-14T02:52:11;0.00;;;0.00;;
19551;SDS011;9921;47.186;9.778;2023-06-14T02:54:38;0.00;;;0.00;;
19551;SDS011;9921;47.186;9.778;2023-06-14T02:57:06;0.00;;;0.00;;
19551;SDS011;9921;47.186;9.778;2023-06-14T02:59:33;0.00;;;0.00;;
19551;SDS011;9921;47.186;9.778;2023-06-14T03:02:01;0.00;;;0.00;;
19551;SDS011;9921;47.186;9.778;2023-06-14T03:04:29;0.00;;;0.00;;
19551;SDS011;9921;47.186;9.778;2023-06-14T03:07:02;0.00;;;0.00;;
19551;SDS011;9921;47.186;9.778;2023-06-14T03:09:34;0.00;;;0.00;;
19551;SDS011;9921;47.186;9.778;2023-06-14T03:12:01;0.00;;;0.00;;
19551;SDS011;9921;47.186;9.778;2023-06-14T03:14:28;0.00;;;0.00;;
19551;SDS011;9921;47.186;9.778;2023-06-14T03:16:55;0.00;;;0.00;;
19551;SDS011;9921;47.186;9.778;2023-06-14T03:19:24;0.00;;;0.00;;
19551;SDS011;9921;47.186;9.778;2023-06-14T03:21:51;0.00;;;0.00;;
19551;SDS011;9921;47.186;9.778;2023-06-14T03:24:21;0.00;;;0.00;;
19551;SDS011;9921;47.186;9.778;2023-06-14T03:26:48;0.00;;;0.00;;
19551;SDS011;9921;47.186;9.778;2023-06-14T03:29:15;0.00;;;0.00;;
19551;SDS011;9921;47.186;9.778;2023-06-14T03:31:55;0.00;;;0.00;;
19551;SDS011;9921;47.186;9.778;2023-06-14T03:34:24;0.00;;;0.00;;
19551;SDS011;9921;47.186;9.778;2023-06-14T03:36:52;0.00;;;0.00;;
19551;SDS011;9921;47.186;9.778;2023-06-14T03:39:18;0.00;;;0.00;;
19551;SDS011;9921;47.186;9.778;2023-06-14T03:41:45;0.00;;;0.00;;
19551;SDS011;9921;47.186;9.778;2023-06-14T03:44:14;0.00;;;0.00;;
19551;SDS011;9921;47.186;9.778;2023-06-14T03:46:42;0.00;;;0.00;;
19551;SDS011;9921;47.186;9.778;2023-06-14T03:49:10;0.00;;;0.00;;
19551;SDS011;9921;47.186;9.778;2023-06-14T03:51:38;0.00;;;0.00;;
19551;SDS011;9921;47.186;9.778;2023-06-14T03:54:05;0.00;;;0.00;;
19551;SDS011;9921;47.186;9.778;2023-06-14T03:56:32;0.00;;;0.00;;
19551;SDS011;9921;47.186;9.778;2023-06-14T03:59:01;0.00;;;0.00;;
19551;SDS011;9921;47.186;9.778;2023-06-14T04:01:28;0.00;;;0.00;;
19551;SDS011;9921;47.186;9.778;2023-06-14T04:03:56;0.00;;;0.00;;
19551;SDS011;9921;47.186;9.778;2023-06-14T04:06:23;0.00;;;0.00;;
19551;SDS011;9921;47.186;9.778;2023-06-14T04:08:59;0.00;;;0.00;;
19551;SDS011;9921;47.186;9.778;2023-06-14T04:11:29;0.00;;;0.00;;
19551;SDS011;9921;47.186;9.778;2023-06-14T04:13:56;0.00;;;0.00;;
19551;SDS011;9921;47.186;9.778;2023-06-14T04:16:23;0.00;;;0.00;;
19551;SDS011;9921;47.186;9.778;2023-06-14T04:18:50;0.00;;;0.00;;
19551;SDS011;9921;47.186;9.778;2023-06-14T04:21:17;0.00;;;0.00;;
19551;SDS011;9921;47.186;9.778;2023-06-14T04:23:44;0.00;;;0.00;;
19551;SDS011;9921;47.186;9.778;2023-06-14T04:26:12;0.00;;;0.00;;
19551;SDS011;9921;47.186;9.778;2023-06-14T04:28:39;0.00;;;0.00;;
19551;SDS011;9921;47.186;9.778;2023-06-14T04:31:06;0.00;;;0.00;;
19551;SDS011;9921;47.186;9.778;2023-06-14T04:33:35;0.00;;;0.00;;
19551;SDS011;9921;47.186;9.778;2023-06-14T04:36:08;0.00;;;0.00;;
19551;SDS011;9921;47.186;9.778;2023-06-14T04:38:36;0.00;;;0.00;;
19551;SDS011;9921;47.186;9.778;2023-06-14T04:41:03;0.00;;;0.00;;
19551;SDS011;9921;47.186;9.778;2023-06-14T04:43:32;0.00;;;0.00;;
19551;SDS011;9921;47.186;9.778;2023-06-14T04:46:03;0.00;;;0.00;;
19551;SDS011;9921;47.186;9.778;2023-06-14T04:48:35;0.00;;;0.00;;
19551;SDS011;9921;47.186;9.778;2023-06-14T04:51:04;0.00;;;0.00;;
19551;SDS011;9921;47.186;9.778;2023-06-14T04:53:31;0.00;;;0.00;;
19551;SDS011;9921;47.186;9.778;2023-06-14T04:55:59;0.00;;;0.00;;
19551;SDS011;9921;47.186;9.778;2023-06-14T04:58:26;0.00;;;0.00;;
19551;SDS011;9921;47.186;9.778;2023-06-14T05:00:55;0.00;;;0.00;;
19551;SDS011;9921;47.186;9.778;2023-06-14T05:03:22;0.00;;;0.00;;
19551;SDS011;9921;47.186;9.778;2023-06-14T05:05:49;0.00;;;0.00;;
19551;SDS011;9921;47.186;9.778;2023-06-14T05:08:18;0.00;;;0.00;;
19551;SDS011;9921;47.186;9.778;2023-06-14T05:10:45;0.00;;;0.00;;
19551;SDS011;9921;47.186;9.778;2023-06-14T05:13:12;0.00;;;0.00;;
19551;SDS011;9921;47.186;9.778;2023-06-14T05:15:38;0.00;;;0.00;;
19551;SDS011;9921;47.186;9.778;2023-06-14T05:18:07;0.00;;;0.00;;
19551;SDS011;9921;47.186;9.778;2023-06-14T05:20:34;0.00;;;0.00;;
19551;SDS011;9921;47.186;9.778;2023-06-14T05:23:02;0.00;;;0.00;;
19551;SDS011;9921;47.186;9.778;2023-06-14T05:25:29;0.00;;;0.00;;
19551;SDS011;9921;47.186;9.778;2023-06-14T05:27:56;0.00;;;0.00;;
19551;SDS011;9921;47.186;9.778;2023-06-14T05:30:23;0.00;;;0.00;;
19551;SDS011;9921;47.186;9.778;2023-06-14T05:32:51;0.00;;;0.00;;
19551;SDS011;9921;47.186;9.778;2023-06-14T05:35:19;0.00;;;0.00;;
19551;SDS011;9921;47.186;9.778;2023-06-14T05:37:48;0.00;;;0.00;;
19551;SDS011;9921;47.186;9.778;2023-06-14T05:40:15;0.00;;;0.00;;
19551;SDS011;9921;47.186;9.778;2023-06-14T05:42:42;0.00;;;0.00;;
19551;SDS011;9921;47.186;9.778;2023-06-14T05:45:09;0.00;;;0.00;;
19551;SDS011;9921;47.186;9.778;2023-06-14T05:47:36;0.00;;;0.00;;
19551;SDS011;9921;47.186;9.778;2023-06-14T05:50:03;0.00;;;0.00;;
19551;SDS011;9921;47.186;9.778;2023-06-14T05:52:33;0.00;;;0.00;;
19551;SDS011;9921;47.186;9.778;2023-06-14T05:55:01;0.00;;;0.00;;
19551;SDS011;9921;47.186;9.778;2023-06-14T05:57:29;0.00;;;0.00;;
19551;SDS011;9921;47.186;9.778;2023-06-14T05:59:56;0.00;;;0.00;;
19551;SDS011;9921;47.186;9.778;2023-06-14T06:02:22;0.00;;;0.00;;
19551;SDS011;9921;47.186;9.778;2023-06-14T06:04:49;0.00;;;0.00;;
19551;SDS011;9921;47.186;9.778;2023-06-14T06:07:16;0.00;;;0.00;;
19551;SDS011;9921;47.186;9.778;2023-06-14T06:09:44;0.00;;;0.00;;
19551;SDS011;9921;47.186;9.778;2023-06-14T06:12:11;0.00;;;0.00;;
19551;SDS011;9921;47.186;9.778;2023-06-14T06:14:38;0.00;;;0.00;;
19551;SDS011;9921;47.186;9.778;2023-06-14T06:17:05;0.00;;;0.00;;
19551;SDS011;9921;47.186;9.778;2023-06-14T06:19:32;0.00;;;0.00;;
19551;SDS011;9921;47.186;9.778;2023-06-14T06:21:59;0.00;;;0.00;;
19551;SDS011;9921;47.186;9.778;2023-06-14T06:24:25;0.00;;;0.00;;
19551;SDS011;9921;47.186;9.778;2023-06-14T06:26:54;0.00;;;0.00;;
19551;SDS011;9921;47.186;9.778;2023-06-14T06:29:20;0.00;;;0.00;;
19551;SDS011;9921;47.186;9.778;2023-06-14T06:31:48;0.00;;;0.00;;
19551;SDS011;9921;47.186;9.778;2023-06-14T06:34:15;0.00;;;0.00;;
19551;SDS011;9921;47.186;9.778;2023-06-14T06:36:42;0.00;;;0.00;;
19551;SDS011;9921;47.186;9.778;2023-06-14T06:39:08;0.00;;;0.00;;
19551;SDS011;9921;47.186;9.778;2023-06-14T06:41:36;0.00;;;0.00;;
19551;SDS011;9921;47.186;9.778;2023-06-14T06:44:06;0.00;;;0.00;;
19551;SDS011;9921;47.186;9.778;2023-06-14T06:46:34;0.00;;;0.00;;
19551;SDS011;9921;47.186;9.778;2023-06-14T06:49:05;0.00;;;0.00;;
19551;SDS011;9921;47.186;9.778;2023-06-14T06:51:32;0.00;;;0.00;;
19551;SDS011;9921;47.186;9.778;2023-06-14T06:54:01;0.00;;;0.00;;
19551;SDS011;9921;47.186;9.778;2023-06-14T06:56:28;0.00;;;0.00;;
19551;SDS011;9921;47.186;9.778;2023-06-14T06:58:56;0.00;;;0.00;;
19551;SDS011;9921;47.186;9.778;2023-06-14T07:01:24;0.00;;;0.00;;
19551;SDS011;9921;47.186;9.778;2023-06-14T07:03:53;0.00;;;0.00;;
19551;SDS011;9921;47.186;9.778;2023-06-14T07:06:20;0.00;;;0.00;;
19551;SDS011;9921;47.186;9.778;2023-06-14T07:08:48;0.00;;;0.00;;
19551;SDS011;9921;47.186;9.778;2023-06-14T07:11:14;0.00;;;0.00;;
19551;SDS011;9921;47.186;9.778;2023-06-14T07:13:41;0.00;;;0.00;;
19551;SDS011;9921;47.186;9.778;2023-06-14T07:16:08;0.00;;;0.00;;
19551;SDS011;9921;47.186;9.778;2023-06-14T07:18:36;0.00;;;0.00;;
19551;SDS011;9921;47.186;9.778;2023-06-14T07:21:03;0.00;;;0.00;;
19551;SDS011;9921;47.186;9.778;2023-06-14T07:23:30;0.00;;;0.00;;
19551;SDS011;9921;47.186;9.778;2023-06-14T07:25:57;0.00;;;0.00;;
19551;SDS011;9921;47.186;9.778;2023-06-14T07:28:24;0.00;;;0.00;;
19551;SDS011;9921;47.186;9.778;2023-06-14T07:30:51;0.00;;;0.00;;
19551;SDS011;9921;47.186;9.778;2023-06-14T07:33:17;0.00;;;0.00;;
19551;SDS011;9921;47.186;9.778;2023-06-14T07:35:46;0.00;;;0.00;;
19551;SDS011;9921;47.186;9.778;2023-06-14T07:38:13;0.00;;;0.00;;
19551;SDS011;9921;47.186;9.778;2023-06-14T07:40:40;0.00;;;0.00;;
19551;SDS011;9921;47.186;9.778;2023-06-14T07:43:07;0.00;;;0.00;;
19551;SDS011;9921;47.186;9.778;2023-06-14T07:45:33;0.00;;;0.00;;
19551;SDS011;9921;47.186;9.778;2023-06-14T07:48:00;0.00;;;0.00;;
19551;SDS011;9921;47.186;9.778;2023-06-14T07:50:28;0.00;;;0.00;;
19551;SDS011;9921;47.186;9.778;2023-06-14T07:52:56;0.00;;;0.00;;
19551;SDS011;9921;47.186;9.778;2023-06-14T07:55:23;0.00;;;0.00;;
19551;SDS011;9921;47.186;9.778;2023-06-14T07:57:50;0.00;;;0.00;;
19551;SDS011;9921;47.186;9.778;2023-06-14T08:00:18;0.00;;;0.00;;
19551;SDS011;9921;47.186;9.778;2023-06-14T08:02:45;0.00;;;0.00;;
19551;SDS011;9921;47.186;9.778;2023-06-14T08:05:12;0.00;;;0.00;;
19551;SDS011;9921;47.186;9.778;2023-06-14T08:07:39;0.00;;;0.00;;
19551;SDS011;9921;47.186;9.778;2023-06-14T08:10:08;0.00;;;0.00;;
19551;SDS011;9921;47.186;9.778;2023-06-14T08:12:35;0.00;;;0.00;;
19551;SDS011;9921;47.186;9.778;2023-06-14T08:15:03;0.00;;;0.00;;
19551;SDS011;9921;47.186;9.778;2023-06-14T08:17:31;0.00;;;0.00;;
19551;SDS011;9921;47.186;9.778;2023-06-14T08:19:58;0.00;;;0.00;;
19551;SDS011;9921;47.186;9.778;2023-06-14T08:22:24;0.00;;;0.00;;
19551;SDS011;9921;47.186;9.778;2023-06-14T08:24:53;0.00;;;0.00;;
19551;SDS011;9921;47.186;9.778;2023-06-14T08:27:21;0.00;;;0.00;;
19551;SDS011;9921;47.186;9.778;2023-06-14T08:29:48;0.00;;;0.00;;
19551;SDS011;9921;47.186;9.778;2023-06-14T08:32:15;0.00;;;0.00;;
19551;SDS011;9921;47.186;9.778;2023-06-14T08:34:42;0.00;;;0.00;;
19551;SDS011;9921;47.186;9.778;2023-06-14T08:37:09;0.00;;;0.00;;
19551;SDS011;9921;47.186;9.778;2023-06-14T08:39:35;0.00;;;0.00;;
19551;SDS011;9921;47.186;9.778;2023-06-14T08:42:03;0.00;;;0.00;;
19551;SDS011;9921;47.186;9.778;2023-06-14T08:44:33;0.00;;;0.00;;
19551;SDS011;9921;47.186;9.778;2023-06-14T08:47:00;0.00;;;0.00;;
19551;SDS011;9921;47.186;9.778;2023-06-14T08:49:28;0.00;;;0.00;;
19551;SDS011;9921;47.186;9.778;2023-06-14T08:51:57;0.00;;;0.00;;
19551;SDS011;9921;47.186;9.778;2023-06-14T08:54:27;0.00;;;0.00;;
19551;SDS011;9921;47.186;9.778;2023-06-14T08:56:56;0.00;;;0.00;;
19551;SDS011;9921;47.186;9.778;2023-06-14T08:59:24;0.07;;;0.07;;
19551;SDS011;9921;47.186;9.778;2023-06-14T09:01:54;0.00;;;0.00;;
19551;SDS011;9921;47.186;9.778;2023-06-14T09:04:22;0.00;;;0.00;;
19551;SDS011;9921;47.186;9.778;2023-06-14T09:06:49;0.00;;;0.00;;
19551;SDS011;9921;47.186;9.778;2023-06-14T09:09:18;0.00;;;0.00;;
19551;SDS011;9921;47.186;9.778;2023-06-14T09:11:45;0.00;;;0.00;;
19551;SDS011;9921;47.186;9.778;2023-06-14T09:14:12;0.10;;;0.10;;
19551;SDS011;9921;47.186;9.778;2023-06-14T09:16:39;0.00;;;0.00;;
19551;SDS011;9921;47.186;9.778;2023-06-14T09:19:08;0.00;;;0.00;;
19551;SDS011;9921;47.186;9.778;2023-06-14T09:21:40;0.00;;;0.00;;
19551;SDS011;9921;47.186;9.778;2023-06-14T09:24:06;0.00;;;0.00;;
19551;SDS011;9921;47.186;9.778;2023-06-14T09:26:40;0.00;;;0.00;;
19551;SDS011;9921;47.186;9.778;2023-06-14T09:29:08;0.00;;;0.00;;
19551;SDS011;9921;47.186;9.778;2023-06-14T09:31:36;0.10;;;0.10;;
19551;SDS011;9921;47.186;9.778;2023-06-14T09:34:03;0.00;;;0.00;;
19551;SDS011;9921;47.186;9.778;2023-06-14T09:36:31;0.00;;;0.00;;
19551;SDS011;9921;47.186;9.778;2023-06-14T09:39:01;0.00;;;0.00;;
19551;SDS011;9921;47.186;9.778;2023-06-14T09:41:31;0.10;;;0.10;;
19551;SDS011;9921;47.186;9.778;2023-06-14T09:43:59;0.05;;;0.05;;
19551;SDS011;9921;47.186;9.778;2023-06-14T09:46:27;0.10;;;0.10;;
19551;SDS011;9921;47.186;9.778;2023-06-14T09:48:54;0.10;;;0.10;;
19551;SDS011;9921;47.186;9.778;2023-06-14T09:51:21;0.10;;;0.10;;
19551;SDS011;9921;47.186;9.778;2023-06-14T09:53:50;0.10;;;0.10;;
19551;SDS011;9921;47.186;9.778;2023-06-14T09:56:20;0.10;;;0.10;;
19551;SDS011;9921;47.186;9.778;2023-06-14T09:58:53;0.10;;;0.10;;
19551;SDS011;9921;47.186;9.778;2023-06-14T10:01:22;0.10;;;0.10;;
19551;SDS011;9921;47.186;9.778;2023-06-14T10:03:50;0.10;;;0.10;;
19551;SDS011;9921;47.186;9.778;2023-06-14T10:06:18;0.10;;;0.10;;
19551;SDS011;9921;47.186;9.778;2023-06-14T10:08:47;0.00;;;0.00;;
19551;SDS011;9921;47.186;9.778;2023-06-14T10:11:16;0.10;;;0.10;;
19551;SDS011;9921;47.186;9.778;2023-06-14T10:13:43;0.10;;;0.10;;
19551;SDS011;9921;47.186;9.778;2023-06-14T10:16:12;0.10;;;0.10;;
19551;SDS011;9921;47.186;9.778;2023-06-14T10:18:44;0.00;;;0.00;;
19551;SDS011;9921;47.186;9.778;2023-06-14T10:21:16;0.10;;;0.10;;
19551;SDS011;9921;47.186;9.778;2023-06-14T10:23:49;0.10;;;0.10;;
19551;SDS011;9921;47.186;9.778;2023-06-14T10:26:21;0.10;;;0.10;;
19551;SDS011;9921;47.186;9.778;2023-06-14T10:28:56;0.10;;;0.10;;
19551;SDS011;9921;47.186;9.778;2023-06-14T10:31:39;0.10;;;0.10;;
19551;SDS011;9921;47.186;9.778;2023-06-14T10:34:07;0.00;;;0.00;;
19551;SDS011;9921;47.186;9.778;2023-06-14T10:36:35;0.10;;;0.10;;
19551;SDS011;9921;47.186;9.778;2023-06-14T10:39:04;0.10;;;0.10;;
19551;SDS011;9921;47.186;9.778;2023-06-14T10:41:36;0.08;;;0.08;;
19551;SDS011;9921;47.186;9.778;2023-06-14T10:47:20;0.10;;;0.10;;
19551;SDS011;9921;47.186;9.778;2023-06-14T10:49:51;0.10;;;0.10;;
19551;SDS011;9921;47.186;9.778;2023-06-14T10:52:24;0.10;;;0.10;;
19551;SDS011;9921;47.186;9.778;2023-06-14T10:55:00;0.10;;;0.10;;
19551;SDS011;9921;47.186;9.778;2023-06-14T10:57:30;0.10;;;0.10;;
19551;SDS011;9921;47.186;9.778;2023-06-14T10:59:57;0.10;;;0.10;;
19551;SDS011;9921;47.186;9.778;2023-06-14T11:02:35;0.10;;;0.10;;
19551;SDS011;9921;47.186;9.778;2023-06-14T11:05:23;0.10;;;0.10;;
19551;SDS011;9921;47.186;9.778;2023-06-14T11:07:58;0.05;;;0.05;;
19551;SDS011;9921;47.186;9.778;2023-06-14T11:10:44;0.10;;;0.10;;
19551;SDS011;9921;47.186;9.778;2023-06-14T11:13:12;0.13;;;0.13;;
19551;SDS011;9921;47.186;9.778;2023-06-14T11:15:44;0.10;;;0.10;;
19551;SDS011;9921;47.186;9.778;2023-06-14T11:18:12;0.10;;;0.10;;
19551;SDS011;9921;47.186;9.778;2023-06-14T11:20:41;0.10;;;0.10;;
19551;SDS011;9921;47.186;9.778;2023-06-14T11:23:08;0.10;;;0.10;;
19551;SDS011;9921;47.186;9.778;2023-06-14T11:25:35;0.10;;;0.10;;
19551;SDS011;9921;47.186;9.778;2023-06-14T11:28:02;0.10;;;0.10;;
19551;SDS011;9921;47.186;9.778;2023-06-14T11:30:30;0.10;;;0.10;;
19551;SDS011;9921;47.186;9.778;2023-06-14T11:32:57;0.10;;;0.10;;
19551;SDS011;9921;47.186;9.778;2023-06-14T11:35:24;0.10;;;0.10;;
19551;SDS011;9921;47.186;9.778;2023-06-14T11:37:52;0.10;;;0.10;;
19551;SDS011;9921;47.186;9.778;2023-06-14T11:40:22;0.10;;;0.10;;
19551;SDS011;9921;47.186;9.778;2023-06-14T11:42:53;0.10;;;0.10;;
19551;SDS011;9921;47.186;9.778;2023-06-14T11:45:25;0.10;;;0.10;;
19551;SDS011;9921;47.186;9.778;2023-06-14T11:47:53;0.10;;;0.10;;
19551;SDS011;9921;47.186;9.778;2023-06-14T11:50:21;0.10;;;0.10;;
19551;SDS011;9921;47.186;9.778;2023-06-14T11:52:51;0.10;;;0.10;;
19551;SDS011;9921;47.186;9.778;2023-06-14T11:55:22;0.10;;;0.10;;
19551;SDS011;9921;47.186;9.778;2023-06-14T11:57:50;0.20;;;0.20;;
19551;SDS011;9921;47.186;9.778;2023-06-14T12:00:17;0.10;;;0.10;;
19551;SDS011;9921;47.186;9.778;2023-06-14T12:02:53;0.20;;;0.20;;
19551;SDS011;9921;47.186;9.778;2023-06-14T12:05:20;0.10;;;0.10;;
19551;SDS011;9921;47.186;9.778;2023-06-14T12:07:48;0.10;;;0.10;;
19551;SDS011;9921;47.186;9.778;2023-06-14T12:10:15;0.10;;;0.10;;
19551;SDS011;9921;47.186;9.778;2023-06-14T12:12:42;0.10;;;0.10;;
19551;SDS011;9921;47.186;9.778;2023-06-14T12:15:09;0.10;;;0.10;;
19551;SDS011;9921;47.186;9.778;2023-06-14T12:17:37;0.10;;;0.10;;
19551;SDS011;9921;47.186;9.778;2023-06-14T12:20:08;0.10;;;0.10;;
19551;SDS011;9921;47.186;9.778;2023-06-14T12:22:38;0.10;;;0.10;;
19551;SDS011;9921;47.186;9.778;2023-06-14T12:25:06;0.10;;;0.10;;
19551;SDS011;9921;47.186;9.778;2023-06-14T12:27:34;0.10;;;0.10;;
19551;SDS011;9921;47.186;9.778;2023-06-14T12:30:01;0.10;;;0.10;;
19551;SDS011;9921;47.186;9.778;2023-06-14T12:32:30;0.10;;;0.10;;
19551;SDS011;9921;47.186;9.778;2023-06-14T12:34:57;0.10;;;0.10;;
19551;SDS011;9921;47.186;9.778;2023-06-14T12:37:25;0.10;;;0.10;;
19551;SDS011;9921;47.186;9.778;2023-06-14T12:39:52;0.10;;;0.10;;
19551;SDS011;9921;47.186;9.778;2023-06-14T12:42:19;0.10;;;0.10;;
19551;SDS011;9921;47.186;9.778;2023-06-14T12:44:46;0.10;;;0.10;;
19551;SDS011;9921;47.186;9.778;2023-06-14T12:47:12;0.10;;;0.10;;
19551;SDS011;9921;47.186;9.778;2023-06-14T12:49:39;0.10;;;0.10;;
19551;SDS011;9921;47.186;9.778;2023-06-14T12:52:07;0.10;;;0.10;;
19551;SDS011;9921;47.186;9.778;2023-06-14T12:54:36;0.10;;;0.10;;
19551;SDS011;9921;47.186;9.778;2023-06-14T12:57:04;0.10;;;0.10;;
19551;SDS011;9921;47.186;9.778;2023-06-14T12:59:31;0.10;;;0.10;;
19551;SDS011;9921;47.186;9.778;2023-06-14T13:01:59;0.10;;;0.10;;
19551;SDS011;9921;47.186;9.778;2023-06-14T13:04:36;0.10;;;0.10;;
19551;SDS011;9921;47.186;9.778;2023-06-14T13:07:04;0.10;;;0.10;;
19551;SDS011;9921;47.186;9.778;2023-06-14T13:09:32;0.10;;;0.10;;
19551;SDS011;9921;47.186;9.778;2023-06-14T13:12:00;0.10;;;0.10;;
19551;SDS011;9921;47.186;9.778;2023-06-14T13:14:27;0.10;;;0.10;;
19551;SDS011;9921;47.186;9.778;2023-06-14T13:16:54;0.10;;;0.10;;
19551;SDS011;9921;47.186;9.778;2023-06-14T13:19:21;0.10;;;0.10;;
19551;SDS011;9921;47.186;9.778;2023-06-14T13:21:49;0.15;;;0.15;;
19551;SDS011;9921;47.186;9.778;2023-06-14T13:24:16;0.10;;;0.10;;
19551;SDS011;9921;47.186;9.778;2023-06-14T13:26:43;0.10;;;0.10;;
19551;SDS011;9921;47.186;9.778;2023-06-14T13:29:11;0.10;;;0.10;;
19551;SDS011;9921;47.186;9.778;2023-06-14T13:31:38;0.10;;;0.10;;
19551;SDS011;9921;47.186;9.778;2023-06-14T13:34:05;0.10;;;0.10;;
19551;SDS011;9921;47.186;9.778;2023-06-14T13:36:32;0.10;;;0.10;;
19551;SDS011;9921;47.186;9.778;2023-06-14T13:38:59;0.10;;;0.10;;
19551;SDS011;9921;47.186;9.778;2023-06-14T13:41:27;0.10;;;0.10;;
19551;SDS011;9921;47.186;9.778;2023-06-14T13:43:57;0.10;;;0.10;;
19551;SDS011;9921;47.186;9.778;2023-06-14T13:46:26;0.10;;;0.10;;
19551;SDS011;9921;47.186;9.778;2023-06-14T13:48:53;0.10;;;0.10;;
19551;SDS011;9921;47.186;9.778;2023-06-14T13:51:19;0.10;;;0.10;;
19551;SDS011;9921;47.186;9.778;2023-06-14T13:53:47;0.10;;;0.10;;
19551;SDS011;9921;47.186;9.778;2023-06-14T13:56:15;0.10;;;0.10;;
19551;SDS011;9921;47.186;9.778;2023-06-14T13:58:43;0.10;;;0.10;;
19551;SDS011;9921;47.186;9.778;2023-06-14T14:01:09;0.10;;;0.10;;
19551;SDS011;9921;47.186;9.778;2023-06-14T14:03:39;0.10;;;0.10;;
19551;SDS011;9921;47.186;9.778;2023-06-14T14:06:05;0.10;;;0.10;;
19551;SDS011;9921;47.186;9.778;2023-06-14T14:08:32;0.10;;;0.10;;
19551;SDS011;9921;47.186;9.778;2023-06-14T14:10:59;0.10;;;0.10;;
19551;SDS011;9921;47.186;9.778;2023-06-14T14:13:26;0.10;;;0.10;;
19551;SDS011;9921;47.186;9.778;2023-06-14T14:15:53;0.10;;;0.10;;
19551;SDS011;9921;47.186;9.778;2023-06-14T14:18:20;0.10;;;0.10;;
19551;SDS011;9921;47.186;9.778;2023-06-14T14:20:48;0.10;;;0.10;;
19551;SDS011;9921;47.186;9.778;2023-06-14T14:23:15;0.10;;;0.10;;
19551;SDS011;9921;47.186;9.778;2023-06-14T14:25:42;0.10;;;0.10;;
19551;SDS011;9921;47.186;9.778;2023-06-14T14:28:09;0.20;;;0.20;;
19551;SDS011;9921;47.186;9.778;2023-06-14T14:30:36;0.10;;;0.10;;
19551;SDS011;9921;47.186;9.778;2023-06-14T14:33:04;0.10;;;0.10;;
19551;SDS011;9921;47.186;9.778;2023-06-14T14:35:32;0.10;;;0.10;;
19551;SDS011;9921;47.186;9.778;2023-06-14T14:38:00;0.10;;;0.10;;
19551;SDS011;9921;47.186;9.778;2023-06-14T14:40:28;0.10;;;0.10;;
19551;SDS011;9921;47.186;9.778;2023-06-14T14:42:55;0.10;;;0.10;;
19551;SDS011;9921;47.186;9.778;2023-06-14T14:45:22;0.10;;;0.10;;
19551;SDS011;9921;47.186;9.778;2023-06-14T14:47:48;0.10;;;0.10;;
19551;SDS011;9921;47.186;9.778;2023-06-14T14:50:15;0.10;;;0.10;;
19551;SDS011;9921;47.186;9.778;2023-06-14T14:52:42;0.15;;;0.15;;
19551;SDS011;9921;47.186;9.778;2023-06-14T14:55:11;0.10;;;0.10;;
19551;SDS011;9921;47.186;9.778;2023-06-14T14:57:38;0.05;;;0.05;;
19551;SDS011;9921;47.186;9.778;2023-06-14T15:00:05;0.10;;;0.10;;
19551;SDS011;9921;47.186;9.778;2023-06-14T15:02:34;0.10;;;0.10;;
19551;SDS011;9921;47.186;9.778;2023-06-14T15:05:00;0.10;;;0.10;;
19551;SDS011;9921;47.186;9.778;2023-06-14T15:07:27;0.10;;;0.10;;
19551;SDS011;9921;47.186;9.778;2023-06-14T15:09:55;0.17;;;0.17;;